EWG14B LFSB-LWSK
Flight info
| Callsign | EWG14B |
|---|---|
| Flight time | 1h 43m |
| Altitude | 37000 |
| Route | ELBEG Y715 AMRUP N491 TRA DCT DEGES DCT GAMSA N871 MADEB N606 ELMEM L607 GEDSO DCT VEKEN DCT DARZA DCT REDVA UL616 KOGAT |
| Aircraft | A320/M-SDE3FGHIRWY/LB1 |
Departure
| Time | 2026-04-17 05:48 |
|---|---|
| Airport | EuroAirport Basel–Mulhouse–Freiburg (LFSB) |
Arrival
| Time | 2026-04-17 07:31 |
|---|---|
| Airport | Skopje International Airport (LWSK) |
| Time | Latitude | Longitude | Altitude | Speed | Heading |
|---|---|---|---|---|---|
| 2026-04-17 05:11 | 47.59797 | 7.52842 | 889 ft | 0 kts | 69° |
| 2026-04-17 05:39 | 47.59793 | 7.52825 | 889 ft | 4 kts | 65° |
| 2026-04-17 05:39 | 47.59780 | 7.52791 | 890 ft | 4 kts | 45° |
| 2026-04-17 05:39 | 47.59759 | 7.52773 | 891 ft | 4 kts | 348° |
| 2026-04-17 05:39 | 47.59749 | 7.52778 | 891 ft | 1 kts | 333° |
| 2026-04-17 05:42 | 47.59756 | 7.52771 | 891 ft | 4 kts | 323° |
| 2026-04-17 05:42 | 47.59766 | 7.52733 | 891 ft | 4 kts | 275° |
| 2026-04-17 05:43 | 47.59773 | 7.52684 | 890 ft | 7 kts | 295° |
| 2026-04-17 05:43 | 47.59829 | 7.52630 | 889 ft | 12 kts | 333° |
| 2026-04-17 05:43 | 47.59907 | 7.52572 | 890 ft | 12 kts | 335° |
| 2026-04-17 05:43 | 47.59984 | 7.52520 | 890 ft | 13 kts | 335° |
| 2026-04-17 05:44 | 47.60090 | 7.52445 | 888 ft | 20 kts | 335° |
| 2026-04-17 05:44 | 47.60229 | 7.52351 | 888 ft | 25 kts | 335° |
| 2026-04-17 05:44 | 47.60402 | 7.52232 | 886 ft | 30 kts | 334° |
| 2026-04-17 05:44 | 47.60605 | 7.52088 | 880 ft | 33 kts | 333° |
| 2026-04-17 05:45 | 47.60820 | 7.51940 | 879 ft | 34 kts | 335° |
| 2026-04-17 05:45 | 47.61033 | 7.51793 | 881 ft | 34 kts | 334° |
| 2026-04-17 05:45 | 47.61250 | 7.51641 | 877 ft | 35 kts | 334° |
| 2026-04-17 05:45 | 47.61477 | 7.51485 | 873 ft | 36 kts | 335° |
| 2026-04-17 05:46 | 47.61687 | 7.51340 | 876 ft | 18 kts | 334° |
| 2026-04-17 05:46 | 47.61785 | 7.51252 | 879 ft | 16 kts | 309° |
| 2026-04-17 05:46 | 47.61797 | 7.51098 | 877 ft | 17 kts | 248° |
| 2026-04-17 05:46 | 47.61737 | 7.51009 | 875 ft | 12 kts | 166° |
| 2026-04-17 05:47 | 47.61681 | 7.51052 | 876 ft | 0 kts | 154° |
| 2026-04-17 05:47 | 47.61668 | 7.51061 | 876 ft | 10 kts | 154° |
| 2026-04-17 05:47 | 47.61406 | 7.51243 | 874 ft | 78 kts | 154° |
| 2026-04-17 05:48 | 47.60721 | 7.51714 | 883 ft | 135 kts | 155° |
| 2026-04-17 05:48 | 47.59727 | 7.52385 | 988 ft | 172 kts | 157° |
| 2026-04-17 05:48 | 47.58623 | 7.53098 | 1581 ft | 176 kts | 156° |
| 2026-04-17 05:48 | 47.57491 | 7.53846 | 2295 ft | 179 kts | 156° |
| 2026-04-17 05:49 | 47.56244 | 7.54175 | 2681 ft | 199 kts | 192° |
| 2026-04-17 05:49 | 47.55042 | 7.53011 | 2966 ft | 225 kts | 236° |
| 2026-04-17 05:49 | 47.54669 | 7.50753 | 3598 ft | 235 kts | 279° |
| 2026-04-17 05:49 | 47.55382 | 7.48610 | 4385 ft | 237 kts | 319° |
| 2026-04-17 05:50 | 47.56841 | 7.47563 | 5198 ft | 236 kts | 351° |
| 2026-04-17 05:50 | 47.58482 | 7.47322 | 6034 ft | 238 kts | 358° |
| 2026-04-17 05:50 | 47.60141 | 7.47174 | 6867 ft | 240 kts | 357° |
| 2026-04-17 05:50 | 47.61813 | 7.47029 | 7661 ft | 240 kts | 356° |
| 2026-04-17 05:51 | 47.63510 | 7.46948 | 8253 ft | 249 kts | 5° |
| 2026-04-17 05:51 | 47.65164 | 7.47738 | 8990 ft | 254 kts | 32° |
| 2026-04-17 05:51 | 47.66390 | 7.49688 | 9474 ft | 273 kts | 64° |
| 2026-04-17 05:51 | 47.67029 | 7.52458 | 9917 ft | 291 kts | 76° |
| 2026-04-17 05:52 | 47.67442 | 7.55448 | 10534 ft | 302 kts | 80° |
| 2026-04-17 05:52 | 47.67788 | 7.58642 | 10796 ft | 325 kts | 81° |
| 2026-04-17 05:52 | 47.68142 | 7.62079 | 11012 ft | 349 kts | 81° |
| 2026-04-17 05:52 | 47.68540 | 7.65737 | 11297 ft | 366 kts | 80° |
| 2026-04-17 05:53 | 47.68981 | 7.69500 | 11899 ft | 373 kts | 79° |
| 2026-04-17 05:53 | 47.69456 | 7.73306 | 12590 ft | 377 kts | 78° |
| 2026-04-17 05:53 | 47.70197 | 7.77060 | 13264 ft | 381 kts | 68° |
| 2026-04-17 05:53 | 47.71147 | 7.80751 | 13951 ft | 385 kts | 68° |
| 2026-04-17 05:54 | 47.72102 | 7.84480 | 14569 ft | 388 kts | 68° |
| 2026-04-17 05:54 | 47.73059 | 7.88245 | 15183 ft | 391 kts | 68° |
| 2026-04-17 05:54 | 47.74004 | 7.92001 | 15788 ft | 395 kts | 68° |
| 2026-04-17 05:54 | 47.74962 | 7.95838 | 16371 ft | 398 kts | 68° |
| 2026-04-17 05:55 | 47.75931 | 7.99717 | 16959 ft | 402 kts | 68° |
| 2026-04-17 05:55 | 47.76694 | 8.03729 | 17547 ft | 407 kts | 78° |
| 2026-04-17 05:55 | 47.76939 | 8.07936 | 18079 ft | 412 kts | 90° |
| 2026-04-17 05:55 | 47.76629 | 8.12177 | 18619 ft | 416 kts | 101° |
| 2026-04-17 05:56 | 47.75779 | 8.16309 | 19091 ft | 420 kts | 110° |
| 2026-04-17 05:56 | 47.74753 | 8.20387 | 19554 ft | 423 kts | 110° |
| 2026-04-17 05:56 | 47.73726 | 8.24509 | 20011 ft | 427 kts | 110° |
| 2026-04-17 05:56 | 47.72700 | 8.28656 | 20457 ft | 430 kts | 109° |
| 2026-04-17 05:57 | 47.71663 | 8.32845 | 20913 ft | 434 kts | 109° |
| 2026-04-17 05:57 | 47.70611 | 8.37064 | 21355 ft | 437 kts | 110° |
| 2026-04-17 05:57 | 47.69547 | 8.41311 | 21783 ft | 440 kts | 110° |
| 2026-04-17 05:57 | 47.68313 | 8.45492 | 22206 ft | 444 kts | 117° |
| 2026-04-17 05:58 | 47.66851 | 8.49556 | 22625 ft | 448 kts | 117° |
| 2026-04-17 05:58 | 47.65383 | 8.53647 | 23054 ft | 451 kts | 117° |
| 2026-04-17 05:58 | 47.63909 | 8.57762 | 23458 ft | 454 kts | 117° |
| 2026-04-17 05:59 | 47.60917 | 8.66094 | 24176 ft | 460 kts | 117° |
| 2026-04-17 05:59 | 47.59409 | 8.70285 | 24521 ft | 463 kts | 117° |
| 2026-04-17 05:59 | 47.57886 | 8.74515 | 24865 ft | 465 kts | 117° |
| 2026-04-17 05:59 | 47.56357 | 8.78755 | 25208 ft | 468 kts | 117° |
| 2026-04-17 06:00 | 47.54838 | 8.82957 | 25534 ft | 470 kts | 117° |
| 2026-04-17 06:00 | 47.53288 | 8.87235 | 25871 ft | 473 kts | 117° |
| 2026-04-17 06:00 | 47.51708 | 8.91585 | 26209 ft | 475 kts | 117° |
| 2026-04-17 06:00 | 47.50159 | 8.95839 | 26513 ft | 477 kts | 117° |
| 2026-04-17 06:01 | 47.48557 | 9.00235 | 26833 ft | 480 kts | 117° |
| 2026-04-17 06:01 | 47.46992 | 9.04522 | 27138 ft | 482 kts | 118° |
| 2026-04-17 06:01 | 47.45392 | 9.08891 | 27432 ft | 484 kts | 118° |
| 2026-04-17 06:01 | 47.43790 | 9.13278 | 27727 ft | 486 kts | 116° |
| 2026-04-17 06:02 | 47.42464 | 9.17849 | 28003 ft | 487 kts | 107° |
| 2026-04-17 06:02 | 47.41595 | 9.22677 | 28283 ft | 487 kts | 98° |
| 2026-04-17 06:02 | 47.41204 | 9.27649 | 28560 ft | 487 kts | 90° |
| 2026-04-17 06:02 | 47.41164 | 9.32635 | 28956 ft | 485 kts | 88° |
| 2026-04-17 06:03 | 47.41132 | 9.37617 | 29367 ft | 485 kts | 88° |
| 2026-04-17 06:03 | 47.41089 | 9.42588 | 29783 ft | 484 kts | 88° |
| 2026-04-17 06:03 | 47.41040 | 9.47555 | 30195 ft | 484 kts | 88° |
| 2026-04-17 06:03 | 47.40986 | 9.52521 | 30548 ft | 483 kts | 88° |
| 2026-04-17 06:04 | 47.40928 | 9.57495 | 30888 ft | 483 kts | 88° |
| 2026-04-17 06:04 | 47.40868 | 9.62462 | 31213 ft | 483 kts | 89° |
| 2026-04-17 06:04 | 47.40557 | 9.67398 | 31544 ft | 485 kts | 97° |
| 2026-04-17 06:04 | 47.39932 | 9.72284 | 31871 ft | 485 kts | 99° |
| 2026-04-17 06:05 | 47.39302 | 9.77100 | 32199 ft | 484 kts | 99° |
| 2026-04-17 06:05 | 47.38663 | 9.81986 | 32544 ft | 484 kts | 99° |
| 2026-04-17 06:05 | 47.38026 | 9.86862 | 32878 ft | 483 kts | 99° |
| 2026-04-17 06:05 | 47.37390 | 9.91732 | 33217 ft | 483 kts | 99° |
| 2026-04-17 06:06 | 47.36753 | 9.96599 | 33547 ft | 483 kts | 99° |
| 2026-04-17 06:06 | 47.36115 | 10.01451 | 33904 ft | 482 kts | 99° |
| 2026-04-17 06:06 | 47.35470 | 10.06305 | 34229 ft | 482 kts | 99° |
| 2026-04-17 06:06 | 47.34821 | 10.11157 | 34532 ft | 481 kts | 99° |
| 2026-04-17 06:07 | 47.34172 | 10.15985 | 34823 ft | 480 kts | 99° |
| 2026-04-17 06:07 | 47.33552 | 10.20586 | 35119 ft | 479 kts | 99° |
| 2026-04-17 06:07 | 47.32901 | 10.25402 | 35418 ft | 478 kts | 99° |
| 2026-04-17 06:07 | 47.32253 | 10.30206 | 35720 ft | 477 kts | 99° |
| 2026-04-17 06:08 | 47.31607 | 10.34998 | 36009 ft | 476 kts | 99° |
| 2026-04-17 06:08 | 47.30959 | 10.39772 | 36286 ft | 475 kts | 99° |
| 2026-04-17 06:08 | 47.30306 | 10.44533 | 36531 ft | 474 kts | 99° |
| 2026-04-17 06:08 | 47.29648 | 10.49288 | 36776 ft | 473 kts | 99° |
| 2026-04-17 06:09 | 47.28988 | 10.54033 | 37039 ft | 472 kts | 99° |
| 2026-04-17 06:09 | 47.28325 | 10.58769 | 37219 ft | 473 kts | 100° |
| 2026-04-17 06:09 | 47.27634 | 10.63508 | 37254 ft | 475 kts | 100° |
| 2026-04-17 06:10 | 47.26169 | 10.73002 | 37259 ft | 476 kts | 101° |
| 2026-04-17 06:10 | 47.24685 | 10.82432 | 37254 ft | 475 kts | 101° |
| 2026-04-17 06:11 | 47.23214 | 10.91913 | 37260 ft | 475 kts | 101° |
| 2026-04-17 06:11 | 47.21748 | 11.01400 | 37267 ft | 475 kts | 101° |
| 2026-04-17 06:12 | 47.20273 | 11.10899 | 37273 ft | 475 kts | 101° |
| 2026-04-17 06:12 | 47.18785 | 11.20380 | 37284 ft | 476 kts | 101° |
| 2026-04-17 06:13 | 47.17287 | 11.29851 | 37290 ft | 476 kts | 101° |
| 2026-04-17 06:13 | 47.15777 | 11.39319 | 37289 ft | 476 kts | 101° |
| 2026-04-17 06:14 | 47.14270 | 11.48726 | 37288 ft | 476 kts | 101° |
| 2026-04-17 06:14 | 47.12754 | 11.58182 | 37287 ft | 476 kts | 101° |
| 2026-04-17 06:15 | 47.11227 | 11.67631 | 37285 ft | 476 kts | 101° |
| 2026-04-17 06:15 | 47.09689 | 11.77091 | 37283 ft | 476 kts | 101° |
| 2026-04-17 06:16 | 47.08042 | 11.86493 | 37277 ft | 477 kts | 108° |
| 2026-04-17 06:16 | 47.05275 | 11.95368 | 37273 ft | 479 kts | 115° |
| 2026-04-17 06:17 | 47.02340 | 12.04129 | 37260 ft | 479 kts | 115° |
| 2026-04-17 06:17 | 46.99398 | 12.12918 | 37276 ft | 480 kts | 115° |
| 2026-04-17 06:18 | 46.96454 | 12.21682 | 37280 ft | 480 kts | 115° |
| 2026-04-17 06:18 | 46.93505 | 12.30397 | 37284 ft | 480 kts | 115° |
| 2026-04-17 06:19 | 46.90532 | 12.39152 | 37290 ft | 480 kts | 115° |
| 2026-04-17 06:19 | 46.87560 | 12.47898 | 37283 ft | 480 kts | 115° |
| 2026-04-17 06:20 | 46.84590 | 12.56637 | 37273 ft | 480 kts | 115° |
| 2026-04-17 06:20 | 46.81595 | 12.65360 | 37265 ft | 480 kts | 115° |
| 2026-04-17 06:21 | 46.78617 | 12.74024 | 37254 ft | 480 kts | 115° |
| 2026-04-17 06:21 | 46.75626 | 12.82734 | 37249 ft | 480 kts | 115° |
| 2026-04-17 06:22 | 46.72626 | 12.91420 | 37245 ft | 480 kts | 115° |
| 2026-04-17 06:22 | 46.69608 | 13.00103 | 37247 ft | 480 kts | 115° |
| 2026-04-17 06:23 | 46.66588 | 13.08776 | 37243 ft | 480 kts | 115° |
| 2026-04-17 06:23 | 46.63563 | 13.17445 | 37246 ft | 480 kts | 115° |
| 2026-04-17 06:24 | 46.60530 | 13.26092 | 37241 ft | 480 kts | 115° |
| 2026-04-17 06:24 | 46.57481 | 13.34733 | 37246 ft | 480 kts | 118° |
| 2026-04-17 06:25 | 46.53515 | 13.42444 | 37238 ft | 481 kts | 132° |
| 2026-04-17 06:25 | 46.48924 | 13.49605 | 37236 ft | 482 kts | 132° |
| 2026-04-17 06:26 | 46.45129 | 13.55517 | 37229 ft | 481 kts | 132° |
| 2026-04-17 06:26 | 46.40580 | 13.62620 | 37228 ft | 481 kts | 132° |
| 2026-04-17 06:27 | 46.35270 | 13.70868 | 37222 ft | 482 kts | 132° |
| 2026-04-17 06:27 | 46.31435 | 13.76803 | 37231 ft | 482 kts | 132° |
| 2026-04-17 06:28 | 46.26848 | 13.83883 | 37214 ft | 483 kts | 132° |
| 2026-04-17 06:28 | 46.22249 | 13.90976 | 37202 ft | 483 kts | 132° |
| 2026-04-17 06:29 | 46.17675 | 13.98015 | 37219 ft | 484 kts | 132° |
| 2026-04-17 06:29 | 46.13027 | 14.05128 | 37223 ft | 484 kts | 132° |
| 2026-04-17 06:30 | 46.08441 | 14.12141 | 37225 ft | 484 kts | 132° |
| 2026-04-17 06:30 | 46.03821 | 14.19191 | 37231 ft | 484 kts | 132° |
| 2026-04-17 06:31 | 45.99199 | 14.26232 | 37230 ft | 483 kts | 132° |
| 2026-04-17 06:31 | 45.94578 | 14.33244 | 37226 ft | 483 kts | 132° |
| 2026-04-17 06:32 | 45.89953 | 14.40238 | 37235 ft | 483 kts | 132° |
| 2026-04-17 06:32 | 45.85327 | 14.47221 | 37220 ft | 482 kts | 132° |
| 2026-04-17 06:33 | 45.80699 | 14.54188 | 37226 ft | 482 kts | 132° |
| 2026-04-17 06:33 | 45.76066 | 14.61151 | 37227 ft | 482 kts | 132° |
| 2026-04-17 06:34 | 45.71466 | 14.68041 | 37231 ft | 482 kts | 132° |
| 2026-04-17 06:34 | 45.66829 | 14.74963 | 37225 ft | 481 kts | 132° |
| 2026-04-17 06:35 | 45.62199 | 14.81867 | 37228 ft | 481 kts | 132° |
| 2026-04-17 06:35 | 45.57564 | 14.88761 | 37226 ft | 480 kts | 132° |
| 2026-04-17 06:36 | 45.52933 | 14.95630 | 37226 ft | 480 kts | 133° |
| 2026-04-17 06:36 | 45.48651 | 15.02873 | 37231 ft | 476 kts | 120° |
| 2026-04-17 06:37 | 45.45371 | 15.10977 | 37232 ft | 475 kts | 117° |
| 2026-04-17 06:37 | 45.42073 | 15.19132 | 37233 ft | 475 kts | 117° |
| 2026-04-17 06:38 | 45.38760 | 15.27266 | 37233 ft | 475 kts | 118° |
| 2026-04-17 06:38 | 45.35448 | 15.35386 | 37234 ft | 475 kts | 117° |
| 2026-04-17 06:39 | 45.32135 | 15.43503 | 37238 ft | 474 kts | 118° |
| 2026-04-17 06:39 | 45.28821 | 15.51605 | 37229 ft | 474 kts | 118° |
| 2026-04-17 06:40 | 45.25500 | 15.59709 | 37231 ft | 474 kts | 118° |
| 2026-04-17 06:40 | 45.22169 | 15.67793 | 37234 ft | 474 kts | 118° |
| 2026-04-17 06:41 | 45.18852 | 15.75818 | 37231 ft | 474 kts | 118° |
| 2026-04-17 06:41 | 45.15517 | 15.83882 | 37230 ft | 474 kts | 118° |
| 2026-04-17 06:42 | 45.12177 | 15.91933 | 37230 ft | 474 kts | 118° |
| 2026-04-17 06:42 | 45.08813 | 15.99978 | 37222 ft | 474 kts | 118° |
| 2026-04-17 06:43 | 45.05452 | 16.08011 | 37221 ft | 474 kts | 118° |
| 2026-04-17 06:43 | 45.02095 | 16.16037 | 37217 ft | 474 kts | 118° |
| 2026-04-17 06:44 | 44.98739 | 16.24047 | 37217 ft | 474 kts | 118° |
| 2026-04-17 06:44 | 44.95366 | 16.32065 | 37216 ft | 474 kts | 118° |
| 2026-04-17 06:45 | 44.91985 | 16.40050 | 37214 ft | 474 kts | 118° |
| 2026-04-17 06:45 | 44.88600 | 16.48024 | 37214 ft | 473 kts | 118° |
| 2026-04-17 06:46 | 44.85215 | 16.55988 | 37212 ft | 473 kts | 118° |
| 2026-04-17 06:46 | 44.81826 | 16.63942 | 37201 ft | 473 kts | 118° |
| 2026-04-17 06:47 | 44.78431 | 16.71879 | 37197 ft | 473 kts | 118° |
| 2026-04-17 06:47 | 44.75053 | 16.79768 | 37199 ft | 473 kts | 118° |
| 2026-04-17 06:48 | 44.71651 | 16.87690 | 37199 ft | 473 kts | 119° |
| 2026-04-17 06:48 | 44.68241 | 16.95600 | 37194 ft | 473 kts | 119° |
| 2026-04-17 06:49 | 44.64830 | 17.03504 | 37196 ft | 473 kts | 119° |
| 2026-04-17 06:49 | 44.61406 | 17.11396 | 37197 ft | 473 kts | 119° |
| 2026-04-17 06:50 | 44.57974 | 17.19282 | 37195 ft | 473 kts | 119° |
| 2026-04-17 06:50 | 44.54547 | 17.27155 | 37191 ft | 473 kts | 119° |
| 2026-04-17 06:51 | 44.51119 | 17.35020 | 37195 ft | 473 kts | 120° |
| 2026-04-17 06:51 | 44.47680 | 17.42865 | 37189 ft | 473 kts | 120° |
| 2026-04-17 06:52 | 44.44235 | 17.50706 | 37191 ft | 472 kts | 120° |
| 2026-04-17 06:52 | 44.40791 | 17.58523 | 37189 ft | 472 kts | 120° |
| 2026-04-17 06:53 | 44.37341 | 17.66326 | 37187 ft | 472 kts | 120° |
| 2026-04-17 06:53 | 44.33904 | 17.74083 | 37186 ft | 471 kts | 120° |
| 2026-04-17 06:54 | 44.30453 | 17.81863 | 37183 ft | 471 kts | 120° |
| 2026-04-17 06:54 | 44.27002 | 17.89627 | 37180 ft | 471 kts | 120° |
| 2026-04-17 06:55 | 44.23533 | 17.97383 | 37178 ft | 471 kts | 121° |
| 2026-04-17 06:55 | 44.20057 | 18.05128 | 37174 ft | 471 kts | 121° |
| 2026-04-17 06:56 | 44.16590 | 18.12866 | 37174 ft | 471 kts | 121° |
| 2026-04-17 06:56 | 44.13114 | 18.20594 | 37172 ft | 471 kts | 121° |
| 2026-04-17 06:57 | 44.09632 | 18.28313 | 37174 ft | 471 kts | 121° |
| 2026-04-17 06:57 | 44.06146 | 18.36022 | 37175 ft | 471 kts | 121° |
| 2026-04-17 06:58 | 44.02647 | 18.43713 | 37177 ft | 470 kts | 121° |
| 2026-04-17 06:58 | 43.99147 | 18.51398 | 37175 ft | 470 kts | 121° |
| 2026-04-17 06:59 | 43.95658 | 18.59064 | 37174 ft | 469 kts | 122° |
| 2026-04-17 06:59 | 43.92164 | 18.66708 | 37168 ft | 469 kts | 122° |
| 2026-04-17 07:00 | 43.88664 | 18.74340 | 37167 ft | 469 kts | 122° |
| 2026-04-17 07:00 | 43.85183 | 18.81909 | 37160 ft | 468 kts | 122° |
| 2026-04-17 07:01 | 43.81651 | 18.89557 | 37158 ft | 468 kts | 122° |
| 2026-04-17 07:01 | 43.78161 | 18.97107 | 37155 ft | 468 kts | 122° |
| 2026-04-17 07:02 | 43.74637 | 19.04739 | 37156 ft | 468 kts | 123° |
| 2026-04-17 07:02 | 43.71134 | 19.12271 | 37153 ft | 468 kts | 123° |
| 2026-04-17 07:03 | 43.67609 | 19.19819 | 37149 ft | 467 kts | 123° |
| 2026-04-17 07:03 | 43.64092 | 19.27368 | 37155 ft | 467 kts | 123° |
| 2026-04-17 07:04 | 43.60571 | 19.34901 | 37162 ft | 466 kts | 123° |
| 2026-04-17 07:04 | 43.57044 | 19.42399 | 37156 ft | 466 kts | 123° |
| 2026-04-17 07:05 | 43.53518 | 19.49883 | 37158 ft | 465 kts | 123° |
| 2026-04-17 07:05 | 43.50010 | 19.57322 | 37155 ft | 465 kts | 123° |
| 2026-04-17 07:06 | 43.46465 | 19.64818 | 37159 ft | 464 kts | 123° |
| 2026-04-17 07:06 | 43.42965 | 19.72206 | 37159 ft | 463 kts | 123° |
| 2026-04-17 07:07 | 43.39437 | 19.79624 | 37156 ft | 463 kts | 123° |
| 2026-04-17 07:07 | 43.35912 | 19.87018 | 37152 ft | 462 kts | 123° |
| 2026-04-17 07:08 | 43.32376 | 19.94396 | 37150 ft | 462 kts | 123° |
| 2026-04-17 07:08 | 43.28848 | 20.01762 | 37143 ft | 462 kts | 123° |
| 2026-04-17 07:09 | 43.25319 | 20.09132 | 37150 ft | 462 kts | 123° |
| 2026-04-17 07:09 | 43.21787 | 20.16476 | 37150 ft | 461 kts | 123° |
| 2026-04-17 07:10 | 43.18244 | 20.23813 | 37148 ft | 461 kts | 123° |
| 2026-04-17 07:10 | 43.14723 | 20.31097 | 37146 ft | 461 kts | 123° |
| 2026-04-17 07:11 | 43.11176 | 20.38403 | 37144 ft | 460 kts | 123° |
| 2026-04-17 07:11 | 43.07620 | 20.45701 | 37142 ft | 460 kts | 123° |
| 2026-04-17 07:12 | 43.04024 | 20.52954 | 37132 ft | 460 kts | 128° |
| 2026-04-17 07:12 | 42.99363 | 20.58905 | 37126 ft | 459 kts | 147° |
| 2026-04-17 07:12 | 42.96586 | 20.61058 | 36906 ft | 460 kts | 155° |
| 2026-04-17 07:13 | 42.93608 | 20.62742 | 35726 ft | 470 kts | 160° |
| 2026-04-17 07:13 | 42.91581 | 20.63809 | 35183 ft | 472 kts | 161° |
| 2026-04-17 07:13 | 42.88524 | 20.65393 | 34591 ft | 468 kts | 161° |
| 2026-04-17 07:13 | 42.85483 | 20.66961 | 33670 ft | 465 kts | 161° |
| 2026-04-17 07:14 | 42.82454 | 20.68526 | 32212 ft | 467 kts | 161° |
| 2026-04-17 07:14 | 42.79406 | 20.70111 | 31203 ft | 470 kts | 161° |
| 2026-04-17 07:14 | 42.76356 | 20.71710 | 30164 ft | 469 kts | 160° |
| 2026-04-17 07:14 | 42.73310 | 20.73318 | 28958 ft | 469 kts | 160° |
| 2026-04-17 07:15 | 42.70273 | 20.74921 | 27785 ft | 469 kts | 160° |
| 2026-04-17 07:15 | 42.67215 | 20.76529 | 26562 ft | 474 kts | 160° |
| 2026-04-17 07:15 | 42.64125 | 20.78150 | 25582 ft | 475 kts | 159° |
| 2026-04-17 07:15 | 42.61062 | 20.79753 | 24804 ft | 470 kts | 159° |
| 2026-04-17 07:16 | 42.58016 | 20.81345 | 23965 ft | 467 kts | 159° |
| 2026-04-17 07:16 | 42.54990 | 20.82926 | 23054 ft | 465 kts | 159° |
| 2026-04-17 07:16 | 42.51991 | 20.84492 | 22287 ft | 460 kts | 159° |
| 2026-04-17 07:16 | 42.49013 | 20.86039 | 21519 ft | 455 kts | 159° |
| 2026-04-17 07:17 | 42.46070 | 20.87563 | 20792 ft | 451 kts | 159° |
| 2026-04-17 07:17 | 42.43151 | 20.89075 | 20074 ft | 447 kts | 159° |
| 2026-04-17 07:17 | 42.37388 | 20.92058 | 18702 ft | 440 kts | 158° |
| 2026-04-17 07:18 | 42.34541 | 20.93529 | 18000 ft | 436 kts | 158° |
| 2026-04-17 07:18 | 42.31727 | 20.94983 | 17377 ft | 429 kts | 158° |
| 2026-04-17 07:18 | 42.28961 | 20.96414 | 16789 ft | 423 kts | 158° |
| 2026-04-17 07:18 | 42.26234 | 20.97827 | 16216 ft | 417 kts | 158° |
| 2026-04-17 07:19 | 42.23546 | 20.99219 | 15651 ft | 412 kts | 158° |
| 2026-04-17 07:19 | 42.20885 | 21.00596 | 15093 ft | 407 kts | 158° |
| 2026-04-17 07:19 | 42.18245 | 21.01958 | 14523 ft | 403 kts | 158° |
| 2026-04-17 07:19 | 42.15631 | 21.03302 | 13933 ft | 401 kts | 158° |
| 2026-04-17 07:20 | 42.13160 | 21.04881 | 13302 ft | 397 kts | 147° |
| 2026-04-17 07:20 | 42.10951 | 21.07073 | 12684 ft | 391 kts | 136° |
| 2026-04-17 07:20 | 42.09119 | 21.09740 | 12005 ft | 386 kts | 125° |
| 2026-04-17 07:20 | 42.07594 | 21.12691 | 11318 ft | 383 kts | 122° |
| 2026-04-17 07:21 | 42.06106 | 21.15603 | 11029 ft | 370 kts | 122° |
| 2026-04-17 07:21 | 42.04485 | 21.18252 | 10496 ft | 368 kts | 135° |
| 2026-04-17 07:21 | 42.02550 | 21.20443 | 10244 ft | 356 kts | 138° |
| 2026-04-17 07:21 | 42.00678 | 21.22495 | 10113 ft | 340 kts | 138° |
| 2026-04-17 07:22 | 41.98903 | 21.24418 | 9973 ft | 314 kts | 138° |
| 2026-04-17 07:22 | 41.97260 | 21.26183 | 9788 ft | 292 kts | 136° |
| 2026-04-17 07:22 | 41.95822 | 21.28033 | 9244 ft | 283 kts | 131° |
| 2026-04-17 07:22 | 41.94479 | 21.29903 | 8649 ft | 280 kts | 130° |
| 2026-04-17 07:23 | 41.93124 | 21.31818 | 8026 ft | 278 kts | 130° |
| 2026-04-17 07:23 | 41.91829 | 21.33645 | 7801 ft | 260 kts | 130° |
| 2026-04-17 07:23 | 41.90630 | 21.35323 | 7570 ft | 248 kts | 130° |
| 2026-04-17 07:23 | 41.89442 | 21.36983 | 7342 ft | 244 kts | 129° |
| 2026-04-17 07:24 | 41.88535 | 21.38856 | 7063 ft | 238 kts | 110° |
| 2026-04-17 07:24 | 41.87873 | 21.40896 | 6772 ft | 238 kts | 110° |
| 2026-04-17 07:24 | 41.87211 | 21.42928 | 6583 ft | 236 kts | 110° |
| 2026-04-17 07:24 | 41.86549 | 21.44951 | 6591 ft | 237 kts | 110° |
| 2026-04-17 07:25 | 41.85883 | 21.46985 | 6404 ft | 241 kts | 110° |
| 2026-04-17 07:25 | 41.85216 | 21.49022 | 6200 ft | 234 kts | 110° |
| 2026-04-17 07:25 | 41.84578 | 21.50963 | 6067 ft | 222 kts | 110° |
| 2026-04-17 07:25 | 41.83968 | 21.52821 | 5797 ft | 216 kts | 110° |
| 2026-04-17 07:26 | 41.83370 | 21.54646 | 5352 ft | 212 kts | 110° |
| 2026-04-17 07:26 | 41.82777 | 21.56451 | 4911 ft | 209 kts | 110° |
| 2026-04-17 07:26 | 41.82210 | 21.58178 | 4696 ft | 197 kts | 110° |
| 2026-04-17 07:26 | 41.81663 | 21.59848 | 4569 ft | 194 kts | 110° |
| 2026-04-17 07:27 | 41.81124 | 21.61501 | 4468 ft | 193 kts | 110° |
| 2026-04-17 07:27 | 41.80784 | 21.63216 | 4375 ft | 189 kts | 86° |
| 2026-04-17 07:27 | 41.81111 | 21.64876 | 4282 ft | 183 kts | 57° |
| 2026-04-17 07:27 | 41.81988 | 21.66083 | 4112 ft | 185 kts | 30° |
| 2026-04-17 07:28 | 41.83205 | 21.66550 | 3779 ft | 183 kts | 0° |
| 2026-04-17 07:28 | 41.84434 | 21.66220 | 3462 ft | 181 kts | 347° |
| 2026-04-17 07:28 | 41.85654 | 21.65795 | 3046 ft | 181 kts | 346° |
| 2026-04-17 07:28 | 41.86846 | 21.65381 | 2698 ft | 171 kts | 345° |
| 2026-04-17 07:29 | 41.87944 | 21.65000 | 2447 ft | 156 kts | 345° |
| 2026-04-17 07:29 | 41.88957 | 21.64649 | 2178 ft | 145 kts | 345° |
| 2026-04-17 07:29 | 41.89902 | 21.64321 | 1966 ft | 140 kts | 344° |
| 2026-04-17 07:29 | 41.90843 | 21.63994 | 1755 ft | 139 kts | 345° |
| 2026-04-17 07:30 | 41.91774 | 21.63669 | 1564 ft | 138 kts | 345° |
| 2026-04-17 07:30 | 41.92699 | 21.63341 | 1353 ft | 137 kts | 343° |
| 2026-04-17 07:30 | 41.93618 | 21.63021 | 1138 ft | 135 kts | 345° |
| 2026-04-17 07:30 | 41.94529 | 21.62700 | 945 ft | 137 kts | 345° |
| 2026-04-17 07:31 | 41.95428 | 21.62398 | 780 ft | 124 kts | 345° |
| 2026-04-17 07:31 | 41.96111 | 21.62155 | 784 ft | 77 kts | 347° |
| 2026-04-17 07:31 | 41.96463 | 21.62037 | 786 ft | 10 kts | 345° |
| 2026-04-17 07:31 | 41.96500 | 21.62090 | 786 ft | 8 kts | 75° |
| 2026-04-17 07:32 | 41.96514 | 21.62158 | 786 ft | 7 kts | 74° |
| 2026-04-17 07:32 | 41.96522 | 21.62198 | 786 ft | 0 kts | 74° |
| 2026-04-17 07:33 | 41.96527 | 21.62219 | 786 ft | 8 kts | 75° |
| 2026-04-17 07:33 | 41.96499 | 21.62290 | 786 ft | 9 kts | 154° |
| 2026-04-17 07:33 | 41.96442 | 21.62314 | 785 ft | 8 kts | 163° |
| 2026-04-17 07:33 | 41.96389 | 21.62334 | 785 ft | 8 kts | 165° |
| 2026-04-17 07:34 | 41.96340 | 21.62351 | 785 ft | 7 kts | 166° |
| 2026-04-17 07:34 | 41.96293 | 21.62367 | 784 ft | 7 kts | 166° |
| 2026-04-17 07:34 | 41.96250 | 21.62382 | 784 ft | 6 kts | 166° |
| 2026-04-17 07:34 | 41.96209 | 21.62395 | 784 ft | 6 kts | 166° |
| 2026-04-17 07:35 | 41.96166 | 21.62410 | 784 ft | 7 kts | 166° |
| 2026-04-17 07:35 | 41.96128 | 21.62456 | 783 ft | 9 kts | 102° |
| 2026-04-17 07:35 | 41.96085 | 21.62518 | 783 ft | 11 kts | 155° |
| 2026-04-17 07:35 | 41.96044 | 21.62538 | 783 ft | 6 kts | 152° |
| 2026-04-17 07:36 | 41.96034 | 21.62583 | 782 ft | 1 kts | 75° |
| 2026-04-17 07:36 | 41.96039 | 21.62601 | 783 ft | 0 kts | 68° |